Time;durP1;ratioP1;P1;durP2;ratioP2;P2;SDS_P1;SDS_P2;PMS_P1;PMS_P2;Temp;Humidity;BMP_temperature;BMP_pressure;BME280_temperature;BME280_humidity;BME280_pressure;Samples;Min_cycle;Max_cycle;Signal;HPM_P1;HPM_P2
2022/08/29 00:01:01;;;;;;;6.57;1.70;;;17.90;90.30;;;;;;5053581;28;20108;-71
2022/08/29 00:03:27;;;;;;;3.58;1.42;;;17.90;90.30;;;;;;5053679;28;20063;-71
2022/08/29 00:05:53;;;;;;;4.03;1.65;;;17.90;90.50;;;;;;5053592;28;20086;-71
2022/08/29 00:08:20;;;;;;;5.03;1.80;;;17.90;90.50;;;;;;5053774;28;20048;-71
2022/08/29 00:10:46;;;;;;;3.42;1.60;;;17.80;90.60;;;;;;5053413;28;20482;-71
2022/08/29 00:13:14;;;;;;;3.42;1.45;;;17.80;90.70;;;;;;5053396;28;20048;-71
2022/08/29 00:15:41;;;;;;;6.75;1.88;;;17.70;90.70;;;;;;5053305;28;20108;-71
2022/08/29 00:18:07;;;;;;;6.75;2.10;;;17.70;90.80;;;;;;5053529;28;20041;-71
2022/08/29 00:20:34;;;;;;;5.28;1.60;;;17.70;90.80;;;;;;5053252;28;20116;-71
2022/08/29 00:23:02;;;;;;;5.28;1.85;;;17.60;90.90;;;;;;5053360;28;20070;-71
2022/08/29 00:25:29;;;;;;;3.75;1.70;;;17.60;91.00;;;;;;5053212;28;20041;-71
2022/08/29 00:27:55;;;;;;;9.80;2.05;;;17.60;91.00;;;;;;5052980;28;20406;-71
2022/08/29 00:30:22;;;;;;;7.03;1.60;;;17.50;91.10;;;;;;5052940;28;20021;-71
2022/08/29 00:32:48;;;;;;;4.72;1.60;;;17.50;91.20;;;;;;5053203;28;20028;-71
2022/08/29 00:35:18;;;;;;;3.95;1.63;;;17.40;91.30;;;;;;5053058;28;20482;-71
2022/08/29 00:37:44;;;;;;;5.82;1.90;;;17.40;91.30;;;;;;5052962;28;20056;-71
2022/08/29 00:40:17;;;;;;;6.68;2.00;;;17.30;91.40;;;;;;5052482;28;20037;-71
2022/08/29 00:42:43;;;;;;;3.88;1.80;;;17.40;91.40;;;;;;5053167;28;20033;-71
2022/08/29 00:45:11;;;;;;;3.85;1.55;;;17.40;91.50;;;;;;5052818;28;20083;-71
2022/08/29 00:47:42;;;;;;;5.95;1.70;;;17.30;91.60;;;;;;5052935;28;20103;-71
2022/08/29 00:50:12;;;;;;;4.43;1.90;;;17.30;91.60;;;;;;5052588;28;20025;-71
2022/08/29 00:52:45;;;;;;;5.10;1.70;;;17.30;91.70;;;;;;5052704;28;20055;-71
2022/08/29 00:55:18;;;;;;;3.95;1.65;;;17.20;91.80;;;;;;5052788;28;20033;-71
2022/08/29 00:57:48;;;;;;;6.70;1.90;;;17.20;91.80;;;;;;5052899;28;20481;-71
2022/08/29 01:00:16;;;;;;;3.95;1.70;;;17.10;91.90;;;;;;5052592;28;20029;-70
2022/08/29 01:02:42;;;;;;;5.82;2.05;;;17.10;92.00;;;;;;5052692;28;20029;-70
2022/08/29 01:05:11;;;;;;;4.45;1.75;;;17.10;92.10;;;;;;5052587;28;20116;-71
2022/08/29 01:07:38;;;;;;;4.72;1.77;;;17.10;92.10;;;;;;5051205;28;20052;-71
2022/08/29 01:10:05;;;;;;;4.78;1.80;;;17.00;92.20;;;;;;5052296;28;20021;-71
2022/08/29 01:12:32;;;;;;;5.30;1.60;;;17.10;92.20;;;;;;5052631;28;20032;-71
2022/08/29 01:15:04;;;;;;;9.43;2.30;;;17.10;92.20;;;;;;5052388;28;20060;-71
2022/08/29 01:17:43;;;;;;;6.72;1.60;;;17.00;92.30;;;;;;5052366;28;20029;-71
2022/08/29 01:20:27;;;;;;;4.38;1.77;;;17.00;92.30;;;;;;5052136;28;20107;-71
2022/08/29 01:23:19;;;;;;;4.35;1.75;;;17.00;92.30;;;;;;5052650;28;20025;-71
2022/08/29 01:25:49;;;;;;;4.78;2.00;;;17.00;92.40;;;;;;5052134;28;20025;-71
2022/08/29 01:28:20;;;;;;;6.63;2.13;;;16.90;92.50;;;;;;5052037;28;20025;-71
2022/08/29 01:31:19;;;;;;;4.88;1.77;;;16.90;92.50;;;;;;5051962;28;20039;-71
2022/08/29 01:33:52;;;;;;;4.65;1.67;;;16.80;92.60;;;;;;5051491;28;20029;-71
2022/08/29 01:36:22;;;;;;;3.45;1.65;;;16.80;92.60;;;;;;5051944;28;20505;-71
2022/08/29 01:38:48;;;;;;;6.18;2.10;;;16.80;92.70;;;;;;5050545;28;20036;-71
2022/08/29 01:41:16;;;;;;;4.35;1.77;;;16.80;92.70;;;;;;5063573;22;20041;-68
2022/08/29 01:43:46;;;;;;;5.97;1.92;;;16.80;92.70;;;;;;5052335;28;20027;-68
2022/08/29 01:46:15;;;;;;;5.50;1.80;;;16.80;92.70;;;;;;5051832;28;20029;-68
2022/08/29 01:48:44;;;;;;;7.15;2.17;;;16.80;92.70;;;;;;5050585;28;20048;-68
2022/08/29 01:51:11;;;;;;;4.28;2.15;;;16.80;92.70;;;;;;5050005;28;20037;-68
2022/08/29 01:53:37;;;;;;;4.93;1.90;;;16.80;92.80;;;;;;5052012;28;20366;-67
2022/08/29 01:56:16;;;;;;;6.53;1.98;;;16.80;92.80;;;;;;5051834;28;20039;-67
2022/08/29 01:58:43;;;;;;;4.22;1.88;;;16.70;92.90;;;;;;5051911;28;20053;-67
2022/08/29 02:01:13;;;;;;;6.03;2.00;;;16.70;92.90;;;;;;5051612;28;20528;-67
2022/08/29 02:03:39;;;;;;;4.97;1.65;;;16.70;92.90;;;;;;5052216;28;20037;-67
2022/08/29 02:06:06;;;;;;;5.22;2.20;;;16.70;92.90;;;;;;5051856;28;20431;-68
2022/08/29 02:08:33;;;;;;;5.60;2.17;;;16.70;93.00;;;;;;5052079;28;20038;-67
2022/08/29 02:10:58;;;;;;;5.30;1.88;;;16.70;93.00;;;;;;5051781;28;20036;-67
2022/08/29 02:13:24;;;;;;;4.82;2.00;;;16.80;93.00;;;;;;5052288;28;20029;-67
2022/08/29 02:15:51;;;;;;;7.78;2.45;;;16.80;92.90;;;;;;5051608;28;20052;-68
2022/08/29 02:18:17;;;;;;;5.75;2.47;;;16.90;92.90;;;;;;5051830;28;20500;-67
2022/08/29 02:20:44;;;;;;;5.82;2.10;;;16.90;92.90;;;;;;5051633;28;20068;-68
2022/08/29 02:23:11;;;;;;;6.03;2.22;;;16.90;92.80;;;;;;5051662;28;20036;-68
2022/08/29 02:25:45;;;;;;;6.80;2.35;;;16.90;92.90;;;;;;5051674;28;20033;-68
2022/08/29 02:28:13;;;;;;;4.65;1.77;;;16.80;93.00;;;;;;5050518;28;20025;-68
2022/08/29 02:30:41;;;;;;;6.07;2.58;;;16.80;93.00;;;;;;5051393;28;20469;-68
2022/08/29 02:33:08;;;;;;;6.65;2.40;;;16.70;93.00;;;;;;5051787;28;20025;-68
2022/08/29 02:35:35;;;;;;;5.15;1.90;;;16.70;93.20;;;;;;5051322;28;20033;-67
2022/08/29 02:38:01;;;;;;;9.45;2.45;;;16.60;93.30;;;;;;5051753;28;20478;-68
2022/08/29 02:40:27;;;;;;;8.82;2.30;;;16.50;93.40;;;;;;5051168;28;20577;-67
2022/08/29 02:42:54;;;;;;;4.95;1.92;;;16.60;93.30;;;;;;5051303;28;20064;-67
2022/08/29 02:45:22;;;;;;;6.32;2.30;;;16.50;93.40;;;;;;5050149;28;20059;-68
2022/08/29 02:47:48;;;;;;;6.03;1.90;;;16.50;93.30;;;;;;5051229;28;20033;-67
2022/08/29 02:50:15;;;;;;;6.03;2.15;;;16.50;93.50;;;;;;5049822;28;20033;-67
2022/08/29 02:52:42;;;;;;;4.85;2.22;;;16.50;93.50;;;;;;5050083;28;20029;-67
2022/08/29 02:55:14;;;;;;;4.68;2.40;;;16.40;93.60;;;;;;5051534;28;20393;-68
2022/08/29 02:57:41;;;;;;;5.10;2.20;;;16.40;93.70;;;;;;5051175;28;20036;-68
2022/08/29 03:00:11;;;;;;;6.63;1.92;;;16.40;93.80;;;;;;5051245;28;20040;-68
2022/08/29 03:02:37;;;;;;;6.22;2.83;;;16.40;93.80;;;;;;5052399;28;20036;-67
2022/08/29 03:05:05;;;;;;;8.55;2.33;;;16.30;93.80;;;;;;5055606;28;20469;-68
2022/08/29 03:07:31;;;;;;;5.07;2.20;;;16.40;93.80;;;;;;5055415;28;20086;-67
2022/08/29 03:09:57;;;;;;;4.97;2.20;;;16.40;93.80;;;;;;5055248;28;20021;-67
2022/08/29 03:12:23;;;;;;;6.90;2.30;;;16.50;93.80;;;;;;5054320;28;20473;-67
2022/08/29 03:14:50;;;;;;;5.68;2.13;;;16.40;93.80;;;;;;5055512;28;20080;-67
2022/08/29 03:17:15;;;;;;;6.90;2.90;;;16.40;93.80;;;;;;5053764;28;20033;-67
2022/08/29 03:19:41;;;;;;;8.23;2.38;;;16.30;93.90;;;;;;5055086;28;20112;-68
2022/08/29 03:22:07;;;;;;;7.25;2.42;;;16.30;93.90;;;;;;5053954;28;20028;-68
2022/08/29 03:24:35;;;;;;;8.10;3.67;;;16.20;94.00;;;;;;5054981;28;20508;-68
2022/08/29 03:27:02;;;;;;;5.53;2.40;;;16.20;94.10;;;;;;5055000;28;20041;-67
2022/08/29 03:29:28;;;;;;;4.47;2.55;;;16.20;94.10;;;;;;5054866;28;20295;-68
2022/08/29 03:31:57;;;;;;;5.30;2.08;;;16.20;94.20;;;;;;5055248;28;20102;-68
2022/08/29 03:34:29;;;;;;;7.53;2.40;;;16.10;94.30;;;;;;5055131;28;20393;-67
2022/08/29 03:36:55;;;;;;;6.22;2.60;;;16.20;94.30;;;;;;5055025;28;20390;-68
2022/08/29 03:39:20;;;;;;;5.47;2.30;;;16.10;94.30;;;;;;5054729;28;20040;-68
2022/08/29 03:41:46;;;;;;;5.88;2.30;;;16.20;94.30;;;;;;5054668;28;20121;-68
2022/08/29 03:44:13;;;;;;;4.88;2.30;;;16.10;94.40;;;;;;5054908;28;20032;-68
2022/08/29 03:46:39;;;;;;;8.88;2.42;;;16.10;94.40;;;;;;5054616;28;20029;-67
2022/08/29 03:49:06;;;;;;;5.38;1.75;;;16.10;94.50;;;;;;5054557;28;20037;-67
2022/08/29 03:51:34;;;;;;;6.22;2.38;;;16.10;94.50;;;;;;5054509;28;20040;-67
2022/08/29 03:54:00;;;;;;;6.97;2.72;;;16.10;94.60;;;;;;5054764;28;20116;-67
2022/08/29 03:56:27;;;;;;;5.82;2.10;;;16.00;94.50;;;;;;5054573;28;20115;-68
2022/08/29 03:58:55;;;;;;;6.75;2.08;;;16.00;94.60;;;;;;5054497;28;20033;-69
2022/08/29 04:01:27;;;;;;;8.02;2.13;;;16.00;94.60;;;;;;5054335;28;20555;-68
2022/08/29 04:03:55;;;;;;;5.07;2.00;;;16.10;94.50;;;;;;5054262;28;20123;-68
2022/08/29 04:06:22;;;;;;;7.10;2.03;;;16.20;94.50;;;;;;5054121;28;20025;-68
2022/08/29 04:08:50;;;;;;;8.25;2.60;;;16.20;94.40;;;;;;5053067;28;20637;-68
2022/08/29 04:11:17;;;;;;;5.40;2.22;;;16.10;94.50;;;;;;5053889;28;20482;-68
2022/08/29 04:13:43;;;;;;;7.60;2.65;;;16.10;94.50;;;;;;5053652;28;20083;-67
2022/08/29 04:16:15;;;;;;;5.05;2.10;;;16.10;94.60;;;;;;5052695;28;20079;-68
2022/08/29 04:18:41;;;;;;;6.50;2.10;;;16.10;94.70;;;;;;5053874;28;20025;-68
2022/08/29 04:21:08;;;;;;;7.18;2.28;;;16.10;94.70;;;;;;5054024;28;20506;-67
2022/08/29 04:23:36;;;;;;;7.32;3.20;;;16.00;94.70;;;;;;5052942;28;20059;-68
2022/08/29 04:26:02;;;;;;;6.38;2.35;;;16.10;94.80;;;;;;5053844;28;20079;-68
2022/08/29 04:28:28;;;;;;;8.88;2.78;;;16.00;94.80;;;;;;5054025;28;20025;-67
2022/08/29 04:30:55;;;;;;;6.05;2.15;;;16.00;94.80;;;;;;5053784;28;20477;-68
2022/08/29 04:33:23;;;;;;;9.23;2.55;;;15.90;94.80;;;;;;5053805;28;20041;-68
2022/08/29 04:35:50;;;;;;;8.88;2.28;;;15.90;94.90;;;;;;5052466;28;20033;-67
2022/08/29 04:38:17;;;;;;;10.15;2.55;;;15.90;95.00;;;;;;5053741;28;20032;-67
2022/08/29 04:40:43;;;;;;;7.90;2.47;;;15.80;95.10;;;;;;5052214;28;20120;-67
2022/08/29 04:43:10;;;;;;;6.78;2.33;;;15.90;95.20;;;;;;5053909;28;20124;-67
2022/08/29 04:45:39;;;;;;;6.53;2.22;;;15.90;95.10;;;;;;5053338;28;20033;-68
2022/08/29 04:48:07;;;;;;;7.22;2.60;;;15.90;95.10;;;;;;5052309;28;20037;-67
2022/08/29 04:50:34;;;;;;;6.75;2.38;;;15.90;95.20;;;;;;5053017;28;20099;-68
2022/08/29 04:53:00;;;;;;;7.68;2.30;;;15.90;95.20;;;;;;5053218;28;20040;-67
2022/08/29 04:55:28;;;;;;;9.23;2.58;;;15.90;95.10;;;;;;5052931;28;20417;-68
2022/08/29 04:57:55;;;;;;;10.13;2.30;;;15.90;95.10;;;;;;5052831;28;20035;-68
2022/08/29 05:00:24;;;;;;;8.10;2.40;;;15.90;95.20;;;;;;5052486;28;20104;-68
2022/08/29 05:02:50;;;;;;;7.88;2.30;;;15.90;95.20;;;;;;5052832;28;20393;-68
2022/08/29 05:05:17;;;;;;;5.55;2.20;;;15.90;95.20;;;;;;5052668;28;20045;-68
2022/08/29 05:07:44;;;;;;;6.47;2.17;;;16.00;95.20;;;;;;5052656;28;20428;-68
2022/08/29 05:10:16;;;;;;;4.43;2.28;;;16.00;95.30;;;;;;5052280;28;20083;-68
2022/08/29 05:12:42;;;;;;;7.10;2.03;;;16.10;95.20;;;;;;5051355;28;20029;-68
2022/08/29 05:15:09;;;;;;;5.43;2.20;;;16.10;95.10;;;;;;5052625;28;20052;-68
2022/08/29 05:17:35;;;;;;;9.32;2.78;;;16.10;95.10;;;;;;5051233;28;20382;-68
2022/08/29 05:20:04;;;;;;;7.13;2.28;;;16.10;95.10;;;;;;5052166;28;20470;-68
2022/08/29 05:22:30;;;;;;;5.88;2.10;;;16.10;95.10;;;;;;5052318;28;20112;-68
2022/08/29 05:24:56;;;;;;;6.90;2.50;;;16.10;95.10;;;;;;5051846;28;20600;-68
2022/08/29 05:27:22;;;;;;;6.47;2.28;;;16.20;95.10;;;;;;5052183;28;20485;-68
2022/08/29 05:29:50;;;;;;;5.25;2.47;;;16.20;95.20;;;;;;5052353;28;20028;-68
2022/08/29 05:32:18;;;;;;;7.85;2.50;;;16.20;95.20;;;;;;5052466;28;20521;-67
2022/08/29 05:34:45;;;;;;;9.02;2.85;;;16.20;95.20;;;;;;5052369;28;20029;-67
2022/08/29 05:37:16;;;;;;;8.20;2.33;;;16.10;95.30;;;;;;5052044;28;20052;-67
2022/08/29 05:39:42;;;;;;;7.85;2.33;;;16.20;95.30;;;;;;5051861;28;20025;-67
2022/08/29 05:42:10;;;;;;;7.20;2.40;;;16.20;95.30;;;;;;5052044;28;20119;-68
2022/08/29 05:44:36;;;;;;;9.30;2.95;;;16.30;95.30;;;;;;5052196;28;20032;-68
2022/08/29 05:47:04;;;;;;;6.35;2.70;;;16.30;95.20;;;;;;5050865;28;20029;-68
2022/08/29 05:49:30;;;;;;;8.05;3.10;;;16.30;95.10;;;;;;5051555;28;20106;-68
2022/08/29 05:51:56;;;;;;;15.63;2.78;;;16.40;95.10;;;;;;5051729;28;20038;-67
2022/08/29 05:54:24;;;;;;;8.88;3.17;;;16.30;95.10;;;;;;5051798;28;20497;-68
2022/08/29 05:56:50;;;;;;;8.55;3.13;;;16.40;95.20;;;;;;5050392;28;20547;-68
2022/08/29 05:59:18;;;;;;;8.63;2.90;;;16.40;95.10;;;;;;5051724;28;20040;-67
2022/08/29 06:01:45;;;;;;;11.38;3.22;;;16.40;95.10;;;;;;5050274;28;20036;-67
2022/08/29 06:04:12;;;;;;;14.48;3.17;;;16.50;95.00;;;;;;5051739;28;20037;-68
2022/08/29 06:06:40;;;;;;;10.40;3.10;;;16.60;94.90;;;;;;5051386;28;20112;-67
2022/08/29 06:09:06;;;;;;;8.80;3.58;;;16.60;94.80;;;;;;5051277;28;20025;-68
2022/08/29 06:11:32;;;;;;;9.77;2.90;;;16.60;94.70;;;;;;5051406;28;20032;-67
2022/08/29 06:13:59;;;;;;;9.20;3.15;;;16.70;94.60;;;;;;5051508;28;20021;-67
2022/08/29 06:16:27;;;;;;;8.25;2.72;;;16.70;94.50;;;;;;5051207;28;20405;-68
2022/08/29 06:18:53;;;;;;;11.18;3.20;;;16.70;94.50;;;;;;5051281;28;20029;-68
2022/08/29 06:21:20;;;;;;;9.32;3.40;;;16.70;94.50;;;;;;5051229;28;20040;-68
2022/08/29 06:23:48;;;;;;;9.27;3.70;;;16.80;94.50;;;;;;5051256;28;20043;-68
2022/08/29 06:26:14;;;;;;;10.67;3.73;;;16.80;94.40;;;;;;5050970;28;20040;-68
2022/08/29 06:28:46;;;;;;;10.90;4.05;;;16.80;94.70;;;;;;5049712;28;20409;-68
2022/08/29 06:31:16;;;;;;;12.85;4.22;;;16.80;94.40;;;;;;5049925;28;20105;-68
2022/08/29 06:33:42;;;;;;;9.82;3.92;;;16.90;94.40;;;;;;5051467;28;20032;-68
2022/08/29 06:36:09;;;;;;;9.60;3.60;;;16.90;94.40;;;;;;5049480;28;20040;-68
2022/08/29 06:38:36;;;;;;;8.43;3.90;;;16.90;94.50;;;;;;5049697;28;20043;-68
2022/08/29 06:41:07;;;;;;;12.98;4.50;;;16.90;94.40;;;;;;5050941;28;20040;-68
2022/08/29 06:43:33;;;;;;;8.90;4.00;;;16.90;94.40;;;;;;5049816;28;20446;-68
2022/08/29 06:45:59;;;;;;;11.77;4.38;;;17.00;94.30;;;;;;5050652;28;20112;-68
2022/08/29 06:48:25;;;;;;;11.52;4.10;;;17.00;94.10;;;;;;5051044;28;20516;-68
2022/08/29 06:50:51;;;;;;;15.30;4.43;;;17.10;94.10;;;;;;5050741;28;20021;-67
2022/08/29 06:53:18;;;;;;;11.90;4.45;;;17.00;94.10;;;;;;5050897;28;20025;-68
2022/08/29 06:55:44;;;;;;;9.15;4.00;;;17.10;94.10;;;;;;5050757;28;20539;-68
2022/08/29 06:58:11;;;;;;;11.82;4.25;;;17.20;94.10;;;;;;5050811;28;20505;-68
2022/08/29 07:00:42;;;;;;;11.18;4.85;;;17.20;93.90;;;;;;5050640;28;20044;-68
2022/08/29 07:03:08;;;;;;;10.80;4.38;;;17.20;93.80;;;;;;5050784;28;20042;-68
2022/08/29 07:05:34;;;;;;;12.32;5.15;;;17.30;93.70;;;;;;5050714;28;20029;-70
2022/08/29 07:08:00;;;;;;;10.65;4.75;;;17.20;93.30;;;;;;5051363;28;20028;-71
2022/08/29 07:10:26;;;;;;;9.95;4.45;;;17.20;93.60;;;;;;5050873;28;20116;-70
2022/08/29 07:12:53;;;;;;;9.40;3.67;;;17.30;93.60;;;;;;5051104;28;20136;-73
2022/08/29 07:15:21;;;;;;;11.73;4.38;;;17.40;93.80;;;;;;5050769;28;20053;-73
2022/08/29 07:17:48;;;;;;;8.30;3.87;;;17.40;92.80;;;;;;5050766;28;20060;-73
2022/08/29 07:20:14;;;;;;;10.63;3.90;;;17.30;92.80;;;;;;5051070;28;20062;-73
2022/08/29 07:22:40;;;;;;;13.65;4.35;;;17.40;92.40;;;;;;5049632;28;20056;-71
2022/08/29 07:25:07;;;;;;;10.13;3.65;;;17.40;92.70;;;;;;5050895;28;20489;-72
2022/08/29 07:27:34;;;;;;;11.15;4.10;;;17.50;92.60;;;;;;5050149;28;20033;-72
2022/08/29 07:30:01;;;;;;;11.60;3.72;;;17.60;92.40;;;;;;5050370;28;20041;-72
2022/08/29 07:32:28;;;;;;;13.55;3.90;;;17.50;92.40;;;;;;5050489;28;20053;-73
2022/08/29 07:34:54;;;;;;;15.30;3.80;;;17.60;92.30;;;;;;5050575;28;20091;-75
2022/08/29 07:37:20;;;;;;;9.30;3.47;;;17.60;92.40;;;;;;5049019;28;20029;-73
2022/08/29 07:39:46;;;;;;;8.30;3.20;;;17.60;92.40;;;;;;5050182;28;20024;-75
2022/08/29 07:42:13;;;;;;;8.98;3.25;;;17.70;92.20;;;;;;5071960;22;20049;-86
2022/08/29 07:44:39;;;;;;;10.48;3.13;;;17.70;92.40;;;;;;5050280;28;20051;-85
2022/08/29 07:47:05;;;;;;;8.25;3.30;;;17.60;92.20;;;;;;5050094;28;20208;-86
2022/08/29 07:49:32;;;;;;;12.98;3.40;;;17.70;92.30;;;;;;5051391;28;20087;-88
2022/08/29 07:52:52;;;;;;;15.68;3.40;;;17.80;92.40;;;;;;5055351;28;20037;-91
2022/08/29 07:55:20;;;;;;;9.32;3.17;;;17.80;92.10;;;;;;5053108;28;20041;-84
2022/08/29 07:57:47;;;;;;;8.70;3.00;;;17.90;92.40;;;;;;5053886;28;20079;-83
2022/08/29 08:00:16;;;;;;;8.93;3.08;;;18.00;92.50;;;;;;5053635;28;20057;-87
2022/08/29 08:02:41;;;;;;;;;;;18.10;92.20;;;;;;5052840;28;20448;-83
2022/08/29 08:05:07;;;;;;;11.70;3.17;;;18.10;91.70;;;;;;5053194;28;19971;-82
2022/08/29 08:07:34;;;;;;;7.95;3.50;;;18.20;91.50;;;;;;5053146;28;20489;-82
2022/08/29 08:10:01;;;;;;;8.55;2.95;;;18.20;91.50;;;;;;5051467;28;20033;-82
2022/08/29 08:12:28;;;;;;;7.63;2.70;;;18.20;91.30;;;;;;5053131;28;20025;-82
2022/08/29 08:14:55;;;;;;;9.98;2.80;;;18.20;91.10;;;;;;5053143;28;20021;-82
2022/08/29 08:17:22;;;;;;;9.07;2.55;;;18.30;91.30;;;;;;5052756;28;20076;-82
2022/08/29 08:19:48;;;;;;;7.95;2.88;;;18.30;91.00;;;;;;5051332;28;20029;-82
2022/08/29 08:22:14;;;;;;;11.50;3.50;;;18.30;90.90;;;;;;5051664;28;20036;-82
2022/08/29 08:24:40;;;;;;;8.88;2.80;;;18.40;91.00;;;;;;5053014;28;20028;-82
2022/08/29 08:27:05;;;;;;;9.55;2.85;;;18.40;90.90;;;;;;5052883;28;20111;-83
2022/08/29 08:29:31;;;;;;;8.90;3.08;;;18.40;91.10;;;;;;5052842;28;20068;-82
2022/08/29 08:32:00;;;;;;;11.02;3.30;;;18.40;90.60;;;;;;5053032;28;20032;-83
2022/08/29 08:34:28;;;;;;;13.07;3.35;;;18.40;90.20;;;;;;5053110;28;20079;-83
2022/08/29 08:36:54;;;;;;;16.38;3.22;;;18.40;90.30;;;;;;5052724;28;20033;-82
2022/08/29 08:39:19;;;;;;;9.82;3.38;;;18.30;90.50;;;;;;5051539;28;20043;-83
2022/08/29 08:42:12;;;;;;;10.68;3.85;;;18.30;90.60;;;;;;5052590;28;20036;-82
2022/08/29 08:44:40;;;;;;;8.13;3.08;;;18.30;90.50;;;;;;5052818;28;20068;-82
2022/08/29 08:47:10;;;;;;;10.13;2.67;;;18.30;90.80;;;;;;5052714;28;20025;-83
2022/08/29 08:49:45;;;;;;;8.85;3.17;;;18.40;90.90;;;;;;5052405;28;20025;-83
2022/08/29 08:52:51;;;;;;;11.85;2.90;;;18.40;90.90;;;;;;5051512;28;20033;-82
2022/08/29 08:55:32;;;;;;;8.68;2.85;;;18.40;90.50;;;;;;5048272;28;20036;-83
2022/08/29 08:58:09;;;;;;;8.00;3.38;;;18.40;90.60;;;;;;5052418;28;20055;-83
2022/08/29 09:00:44;;;;;;;8.85;3.15;;;18.40;90.60;;;;;;5051074;28;20032;-83
2022/08/29 09:03:32;;;;;;;9.13;3.13;;;18.40;90.60;;;;;;5052885;28;20488;-83
2022/08/29 09:06:18;;;;;;;9.45;2.55;;;18.50;90.70;;;;;;5052187;28;20068;-82
2022/08/29 09:08:54;;;;;;;10.65;3.55;;;18.50;90.50;;;;;;5050813;28;20053;-83
2022/08/29 09:11:44;;;;;;;9.57;3.35;;;18.50;90.30;;;;;;5052227;28;20147;-82
2022/08/29 09:14:34;;;;;;;11.05;3.42;;;18.50;90.00;;;;;;5052304;28;20033;-83
2022/08/29 09:17:01;;;;;;;9.52;3.20;;;18.50;90.00;;;;;;5052134;28;20125;-83
2022/08/29 09:19:27;;;;;;;7.65;2.92;;;18.50;90.00;;;;;;5050864;28;20481;-83
2022/08/29 09:21:59;;;;;;;12.25;3.78;;;18.50;90.00;;;;;;5050858;28;20102;-83
2022/08/29 09:24:49;;;;;;;9.80;3.13;;;18.50;89.70;;;;;;5052289;28;20033;-83
2022/08/29 09:27:21;;;;;;;7.55;2.85;;;18.40;89.80;;;;;;5034045;28;20559;-83
2022/08/29 09:29:53;;;;;;;9.00;3.25;;;18.50;90.20;;;;;;5034122;28;20091;-83
2022/08/29 09:32:19;;;;;;;7.65;2.78;;;18.50;90.10;;;;;;5052008;28;20033;-83
2022/08/29 09:34:47;;;;;;;7.15;2.88;;;18.50;89.90;;;;;;5050535;28;20083;-83
2022/08/29 09:37:30;;;;;;;9.15;3.03;;;18.60;89.60;;;;;;5050499;28;20032;-83
2022/08/29 09:40:10;;;;;;;9.50;3.30;;;18.60;89.40;;;;;;5050374;28;20033;-83
2022/08/29 09:42:42;;;;;;;8.85;3.10;;;18.70;88.80;;;;;;5051530;28;20024;-83
2022/08/29 09:45:19;;;;;;;8.05;2.63;;;18.70;88.70;;;;;;5051670;28;20228;-83
2022/08/29 09:47:45;;;;;;;6.70;2.50;;;18.80;88.50;;;;;;5051269;28;20033;-83
2022/08/29 09:50:24;;;;;;;10.13;3.20;;;18.90;88.40;;;;;;5051394;28;20037;-83
2022/08/29 09:52:58;;;;;;;9.32;3.20;;;19.00;87.30;;;;;;5051623;28;20029;-83
2022/08/29 09:55:43;;;;;;;7.47;3.20;;;19.10;86.90;;;;;;5051600;28;20043;-82
2022/08/29 09:58:18;;;;;;;9.05;3.42;;;19.10;86.80;;;;;;5051437;28;20099;-83
2022/08/29 10:01:01;;;;;;;9.00;2.92;;;19.20;87.00;;;;;;5056801;22;20033;-72
2022/08/29 10:03:31;;;;;;;8.85;2.97;;;19.30;86.80;;;;;;5050308;28;20047;-73
2022/08/29 10:06:21;;;;;;;13.18;3.25;;;19.50;86.40;;;;;;5051233;28;20420;-73
2022/08/29 10:09:27;;;;;;;8.77;3.20;;;19.50;85.50;;;;;;5051038;28;20443;-73
2022/08/29 10:12:02;;;;;;;7.70;2.90;;;19.60;84.50;;;;;;5019927;28;20045;-73
2022/08/29 10:14:43;;;;;;;9.70;2.80;;;19.70;84.30;;;;;;5031381;28;20045;-73
2022/08/29 10:20:35;;;;;;;8.50;3.13;;;19.70;83.50;;;;;;5030997;28;20030;-73
2022/08/29 10:23:24;;;;;;;6.95;3.33;;;19.70;83.20;;;;;;5031294;28;20056;-73
2022/08/29 10:25:50;;;;;;;9.63;3.33;;;19.70;83.00;;;;;;5031037;28;20443;-73
2022/08/29 10:28:42;;;;;;;8.13;2.72;;;19.70;83.70;;;;;;5031136;28;20032;-73
2022/08/29 10:31:17;;;;;;;10.50;3.30;;;19.70;84.00;;;;;;5029710;28;20117;-73
2022/08/29 10:33:43;;;;;;;7.90;2.97;;;19.60;83.60;;;;;;5031095;28;20105;-73
2022/08/29 10:36:19;;;;;;;5.55;2.85;;;19.60;83.60;;;;;;5030983;28;20521;-73
2022/08/29 10:39:14;;;;;;;9.52;2.80;;;19.60;83.90;;;;;;5030825;28;20167;-73
2022/08/29 10:42:01;;;;;;;8.55;2.70;;;19.60;83.70;;;;;;5031226;28;20034;-73
2022/08/29 10:44:36;;;;;;;9.43;3.45;;;19.70;84.10;;;;;;5031082;28;20394;-73
2022/08/29 10:47:34;;;;;;;6.72;3.22;;;19.70;83.90;;;;;;5030613;28;20025;-73
2022/08/29 10:50:09;;;;;;;6.63;3.30;;;19.70;83.90;;;;;;5030739;28;20065;-73
2022/08/29 10:52:52;;;;;;;5.47;2.42;;;19.70;83.00;;;;;;5030766;28;20049;-73
2022/08/29 10:56:01;;;;;;;8.80;2.83;;;19.70;83.20;;;;;;5030775;28;20441;-73
2022/08/29 10:58:50;;;;;;;7.63;3.00;;;19.70;83.60;;;;;;5022647;28;20536;-73
2022/08/29 11:01:21;;;;;;;7.32;2.78;;;19.70;83.80;;;;;;4999448;28;20437;-73
2022/08/29 11:04:03;;;;;;;8.02;2.95;;;19.70;83.70;;;;;;5030734;28;20041;-73
2022/08/29 11:06:36;;;;;;;9.50;2.78;;;19.70;83.30;;;;;;5030646;28;20150;-73
2022/08/29 11:09:08;;;;;;;8.10;3.15;;;19.70;83.50;;;;;;5031025;28;20033;-74
2022/08/29 11:11:38;;;;;;;12.77;2.83;;;19.80;83.00;;;;;;5031309;28;20390;-74
2022/08/29 11:14:23;;;;;;;8.18;2.90;;;19.80;82.30;;;;;;5031524;28;20041;-74
2022/08/29 11:16:51;;;;;;;7.63;3.20;;;19.90;81.30;;;;;;5031068;28;20564;-74
2022/08/29 11:19:42;;;;;;;7.15;2.67;;;19.90;80.70;;;;;;5031049;28;20033;-74
2022/08/29 11:22:20;;;;;;;7.63;2.50;;;19.90;80.60;;;;;;5031627;28;20033;-74
2022/08/29 11:25:00;;;;;;;10.85;3.13;;;19.90;81.10;;;;;;5034021;28;20124;-74
2022/08/29 11:27:51;;;;;;;8.13;2.90;;;20.00;81.60;;;;;;5034983;28;20022;-73
2022/08/29 11:30:21;;;;;;;6.18;2.42;;;20.00;81.40;;;;;;5034685;28;20025;-74
2022/08/29 11:33:03;;;;;;;4.82;2.35;;;20.00;81.30;;;;;;5034953;28;20037;-74
2022/08/29 11:35:44;;;;;;;6.05;2.85;;;20.00;81.20;;;;;;5035095;28;20113;-74
2022/08/29 11:38:25;;;;;;;8.05;2.92;;;20.00;81.60;;;;;;5033827;28;20033;-74
2022/08/29 11:41:16;;;;;;;8.30;2.83;;;20.00;81.10;;;;;;5033462;28;20084;-73
2022/08/29 11:43:46;;;;;;;9.77;3.00;;;20.00;81.10;;;;;;5034788;28;20041;-73
2022/08/29 11:46:14;;;;;;;6.88;2.60;;;20.10;81.90;;;;;;5033986;28;20035;-73
2022/08/29 11:48:45;;;;;;;7.32;2.90;;;20.10;81.20;;;;;;5034001;28;20033;-73
2022/08/29 11:51:36;;;;;;;7.43;2.80;;;20.10;80.70;;;;;;5033928;28;20029;-73
2022/08/29 11:54:27;;;;;;;7.15;2.53;;;20.10;80.40;;;;;;5034012;28;20027;-73
2022/08/29 11:56:59;;;;;;;6.60;2.80;;;20.10;80.20;;;;;;5026434;28;20037;-73
2022/08/29 11:59:49;;;;;;;7.00;2.85;;;20.20;79.80;;;;;;5033739;28;20025;-73
2022/08/29 12:02:28;;;;;;;8.05;2.70;;;20.30;78.60;;;;;;5033861;28;20398;-73
2022/08/29 12:05:19;;;;;;;8.68;3.00;;;20.30;78.90;;;;;;5033588;28;20095;-73
2022/08/29 12:08:14;;;;;;;9.77;2.78;;;20.30;79.00;;;;;;5033574;28;20049;-73
2022/08/29 12:10:56;;;;;;;7.05;2.85;;;20.40;78.90;;;;;;5033415;28;20527;-73
2022/08/29 12:13:51;;;;;;;6.95;2.97;;;20.40;78.40;;;;;;5033614;28;20033;-73
2022/08/29 12:16:24;;;;;;;8.00;2.58;;;20.40;78.60;;;;;;5020378;28;20052;-73
2022/08/29 12:18:52;;;;;;;9.43;3.15;;;20.30;78.70;;;;;;5033187;28;20030;-73
2022/08/29 12:21:44;;;;;;;6.97;2.38;;;20.40;78.00;;;;;;5033417;28;20056;-73
2022/08/29 12:24:39;;;;;;;7.13;2.97;;;20.40;77.90;;;;;;5031938;28;20101;-73
2022/08/29 12:27:21;;;;;;;8.70;2.80;;;20.50;78.10;;;;;;5033079;28;20045;-73
2022/08/29 12:29:49;;;;;;;7.65;3.08;;;20.50;78.40;;;;;;5032820;28;20029;-73
2022/08/29 12:32:40;;;;;;;7.88;2.60;;;20.50;78.80;;;;;;5033187;28;20030;-73
2022/08/29 12:35:15;;;;;;;8.07;2.55;;;20.50;78.80;;;;;;5032602;28;20029;-72
2022/08/29 12:38:19;;;;;;;8.45;2.88;;;20.50;77.60;;;;;;5033332;28;20406;-73
2022/08/29 12:40:48;;;;;;;5.97;2.60;;;20.60;77.00;;;;;;5023156;28;20037;-73
2022/08/29 12:43:34;;;;;;;7.75;2.90;;;20.60;77.30;;;;;;5033098;28;20032;-73
2022/08/29 12:46:07;;;;;;;6.20;2.42;;;20.60;76.70;;;;;;5032917;28;20026;-73
2022/08/29 12:48:39;;;;;;;8.48;2.72;;;20.60;76.60;;;;;;5033062;28;20367;-74
2022/08/29 12:51:05;;;;;;;7.70;2.88;;;20.70;77.30;;;;;;5032707;28;20066;-73
2022/08/29 12:53:33;;;;;;;5.82;2.42;;;20.80;77.90;;;;;;5031627;28;20025;-73
2022/08/29 12:56:21;;;;;;;7.13;3.03;;;20.80;77.60;;;;;;5032758;28;20446;-73
2022/08/29 12:58:50;;;;;;;8.10;3.10;;;20.90;76.10;;;;;;5032809;28;20068;-73
2022/08/29 13:01:24;;;;;;;;;;;20.90;75.70;;;;;;5032889;28;20025;-73
2022/08/29 13:04:12;;;;;;;8.98;3.08;;;21.00;75.20;;;;;;5048138;28;19917;-73
2022/08/29 13:06:59;;;;;;;6.00;2.85;;;21.00;75.10;;;;;;5031344;28;20036;-73
2022/08/29 13:09:44;;;;;;;5.85;2.33;;;20.90;75.50;;;;;;5031266;28;20523;-73
2022/08/29 13:12:26;;;;;;;5.68;2.60;;;20.90;75.50;;;;;;5032456;28;20034;-73